createdAt,value
2023-02-19T00:01:08.922Z,100367.91
2023-02-19T00:04:44.995Z,100362.86
2023-02-19T00:08:12.312Z,100364.52
2023-02-19T00:11:40.087Z,100363.45
2023-02-19T00:15:08.694Z,100362.07
2023-02-19T00:18:35.918Z,100357.69
2023-02-19T00:22:03.334Z,100362.48
2023-02-19T00:25:30.666Z,100362.67
2023-02-19T00:28:59.751Z,100360.61
2023-02-19T00:32:26.799Z,100360.20
2023-02-19T00:35:54.068Z,100363.98
2023-02-19T00:39:21.586Z,100362.43
2023-02-19T00:42:49.014Z,100356.32
2023-02-19T00:46:17.616Z,100360.46
2023-02-19T00:49:47.354Z,100361.69
2023-02-19T00:53:14.493Z,100360.00
2023-02-19T00:56:42.103Z,100363.42
2023-02-19T01:00:11.701Z,100363.14
2023-02-19T01:03:40.313Z,100369.27
2023-02-19T01:07:10.007Z,100365.21
2023-02-19T01:10:44.956Z,100359.34
2023-02-19T01:14:13.091Z,100350.21
2023-02-19T01:17:43.605Z,100341.77
2023-02-19T01:21:31.990Z,100339.70
2023-02-19T01:24:59.140Z,100333.10
2023-02-19T01:28:26.575Z,100333.77
2023-02-19T01:31:53.882Z,100331.20
2023-02-19T01:35:21.032Z,100331.75
2023-02-19T01:38:49.947Z,100329.13
2023-02-19T01:42:18.764Z,100331.17
2023-02-19T01:45:48.362Z,100329.21
2023-02-19T01:49:20.181Z,100326.16
2023-02-19T01:52:47.372Z,100320.48
2023-02-19T01:56:17.492Z,100319.08
2023-02-19T01:59:45.682Z,100310.91
2023-02-19T02:03:13.904Z,100307.19
2023-02-19T02:06:49.185Z,100303.86
2023-02-19T02:10:22.539Z,100303.70
2023-02-19T02:13:51.002Z,100298.20
2023-02-19T02:17:27.003Z,100291.89
2023-02-19T02:21:05.536Z,100286.25
2023-02-19T02:25:12.282Z,100277.64
2023-02-19T02:29:27.273Z,100273.30
2023-02-19T02:33:03.942Z,100271.90
2023-02-19T02:36:34.781Z,100265.34
2023-02-19T02:40:03.153Z,100258.96
2023-02-19T02:43:33.507Z,100257.60
2023-02-19T02:47:00.965Z,100253.83
2023-02-19T02:50:41.476Z,100253.67
2023-02-19T02:54:30.209Z,100247.95
2023-02-19T02:57:56.900Z,100243.53
2023-02-19T03:01:47.583Z,100237.12
2023-02-19T03:05:37.088Z,100241.42
2023-02-19T03:09:11.811Z,100239.58
2023-02-19T03:12:59.355Z,100239.42
2023-02-19T03:16:51.098Z,100238.63
2023-02-19T03:20:22.353Z,100232.67
2023-02-19T03:24:09.526Z,100224.44
2023-02-19T03:27:40.088Z,100215.17
2023-02-19T03:31:10.274Z,100211.14
2023-02-19T03:34:42.863Z,100214.17
2023-02-19T03:38:18.811Z,100214.39
2023-02-19T03:41:55.068Z,100208.41
2023-02-19T03:45:31.994Z,100203.45
2023-02-19T03:49:06.362Z,100203.65
2023-02-19T03:52:44.538Z,100204.34
2023-02-19T03:56:17.553Z,100203.30
2023-02-19T03:59:50.126Z,100198.69
2023-02-19T04:03:38.807Z,100196.45
2023-02-19T04:07:09.550Z,100205.23
2023-02-19T04:10:39.125Z,100211.27
2023-02-19T04:14:12.022Z,100212.28
2023-02-19T04:17:45.461Z,100217.29
2023-02-19T04:21:14.465Z,100221.42
2023-02-19T04:24:44.625Z,100229.31
2023-02-19T04:28:14.575Z,100235.98
2023-02-19T04:31:42.027Z,100239.40
2023-02-19T04:35:10.000Z,100238.19
2023-02-19T04:38:37.086Z,100236.73
2023-02-19T04:42:04.377Z,100222.35
2023-02-19T04:45:31.626Z,100225.61
2023-02-19T04:48:59.108Z,100234.86
2023-02-19T04:52:26.815Z,100238.75
2023-02-19T04:56:16.131Z,100248.48
2023-02-19T04:59:43.301Z,100240.30
2023-02-19T05:03:10.433Z,100243.89
2023-02-19T05:06:37.819Z,100248.15
2023-02-19T05:10:06.331Z,100244.96
2023-02-19T05:13:33.848Z,100239.92
2023-02-19T05:17:01.049Z,100233.42
2023-02-19T05:20:28.414Z,100235.95
2023-02-19T05:23:55.565Z,100236.89
2023-02-19T05:27:22.739Z,100231.97
2023-02-19T05:30:52.254Z,100235.37
2023-02-19T05:34:19.573Z,100239.80
2023-02-19T05:37:46.757Z,100241.24
2023-02-19T05:41:16.325Z,100240.01
2023-02-19T05:44:43.848Z,100244.20
2023-02-19T05:48:12.136Z,100242.97
2023-02-19T05:51:39.373Z,100245.36
2023-02-19T05:55:07.466Z,100251.33
2023-02-19T05:58:34.527Z,100252.94
2023-02-19T06:02:01.690Z,100252.67
2023-02-19T06:05:28.950Z,100250.86
2023-02-19T06:08:56.818Z,100250.56
2023-02-19T06:12:23.900Z,100247.65
2023-02-19T06:15:51.053Z,100250.92
2023-02-19T06:19:18.420Z,100253.77
2023-02-19T06:22:45.517Z,100262.63
2023-02-19T06:26:14.797Z,100266.39
2023-02-19T06:29:42.413Z,100268.77
2023-02-19T06:33:09.725Z,100275.52
2023-02-19T06:36:37.206Z,100281.43
2023-02-19T06:40:05.227Z,100287.86
2023-02-19T06:43:33.021Z,100295.88
2023-02-19T06:47:00.163Z,100295.16
2023-02-19T06:50:27.534Z,100298.17
2023-02-19T06:53:55.096Z,100302.92
2023-02-19T06:57:22.244Z,100304.11
2023-02-19T07:00:49.380Z,100311.98
2023-02-19T07:04:17.107Z,100310.65
2023-02-19T07:07:46.413Z,100307.80
2023-02-19T07:11:13.468Z,100305.55
2023-02-19T07:14:40.774Z,100306.59
2023-02-19T07:18:10.476Z,100310.69
2023-02-19T07:21:37.981Z,100307.29
2023-02-19T07:25:05.980Z,100311.70
2023-02-19T07:28:33.223Z,100315.17
2023-02-19T07:32:00.509Z,100318.83
2023-02-19T07:35:28.015Z,100320.16
2023-02-19T07:38:58.401Z,100322.73
2023-02-19T07:42:25.753Z,100323.66
2023-02-19T07:45:53.388Z,100326.80
2023-02-19T07:49:20.737Z,100330.09
2023-02-19T07:52:47.986Z,100330.46
2023-02-19T07:56:15.601Z,100325.50
2023-02-19T07:59:42.828Z,100332.75
2023-02-19T08:03:10.253Z,100342.27
2023-02-19T08:06:37.802Z,100346.86
2023-02-19T08:10:23.475Z,100343.90
2023-02-19T08:13:53.606Z,100347.65
2023-02-19T08:17:20.720Z,100351.86
2023-02-19T08:20:48.650Z,100358.21
2023-02-19T08:24:15.927Z,100365.33
2023-02-19T08:27:42.989Z,100367.91
2023-02-19T08:31:12.511Z,100372.09
2023-02-19T08:34:38.283Z,100375.95
2023-02-19T08:38:07.025Z,100383.38
2023-02-19T08:41:34.114Z,100387.44
2023-02-19T08:45:01.322Z,100393.90
2023-02-19T08:48:28.920Z,100402.36
2023-02-19T08:51:56.039Z,100407.29
2023-02-19T08:55:23.475Z,100410.67
2023-02-19T08:58:50.875Z,100415.77
2023-02-19T09:02:18.118Z,100419.11
2023-02-19T09:05:46.950Z,100413.02
2023-02-19T09:09:14.295Z,100416.08
2023-02-19T09:12:41.493Z,100420.48
2023-02-19T09:16:09.379Z,100426.69
2023-02-19T09:19:36.913Z,100425.42
2023-02-19T09:23:04.369Z,100428.27
2023-02-19T09:26:32.347Z,100438.67
2023-02-19T09:29:59.708Z,100443.52
2023-02-19T09:33:26.861Z,100457.15
2023-02-19T09:36:54.362Z,100465.65
2023-02-19T09:40:22.533Z,100466.11
2023-02-19T09:43:50.017Z,100477.04
2023-02-19T09:47:21.708Z,100486.58
2023-02-19T09:50:50.921Z,100480.21
2023-02-19T09:54:22.971Z,100493.06
2023-02-19T09:57:51.780Z,100505.89
2023-02-19T10:01:19.958Z,100504.90
2023-02-19T10:04:49.090Z,100509.75
2023-02-19T10:08:21.405Z,100508.55
2023-02-19T10:11:49.957Z,100509.60
2023-02-19T10:15:25.351Z,100509.09
2023-02-19T10:18:52.448Z,100518.95
2023-02-19T10:22:20.655Z,100526.75
2023-02-19T10:25:51.124Z,100534.18
2023-02-19T10:29:19.848Z,100541.73
2023-02-19T10:33:02.401Z,100542.77
2023-02-19T10:36:33.400Z,100550.14
2023-02-19T10:40:00.670Z,100551.06
2023-02-19T10:43:33.778Z,100548.02
2023-02-19T10:47:02.705Z,100555.15
2023-02-19T10:50:33.834Z,100551.82
2023-02-19T10:54:16.636Z,100552.99
2023-02-19T10:57:44.212Z,100553.59
2023-02-19T11:01:21.162Z,100558.05
2023-02-19T11:05:06.592Z,100555.63
2023-02-19T11:08:47.260Z,100563.23
2023-02-19T11:12:16.487Z,100569.80
2023-02-19T11:15:44.688Z,100569.59
2023-02-19T11:19:28.254Z,100572.05
2023-02-19T11:23:02.637Z,100571.86
2023-02-19T11:26:35.149Z,100575.94
2023-02-19T11:30:35.837Z,100578.30
2023-02-19T11:34:05.250Z,100588.03
2023-02-19T11:37:32.822Z,100590.34
2023-02-19T11:41:15.447Z,100589.79
2023-02-19T11:44:54.183Z,100594.31
2023-02-19T11:48:38.778Z,100599.52
2023-02-19T11:52:20.112Z,100598.44
2023-02-19T11:55:59.691Z,100599.45
2023-02-19T11:59:34.600Z,100601.35
2023-02-19T12:03:32.838Z,100605.16
2023-02-19T12:07:12.442Z,100613.41
2023-02-19T12:10:52.952Z,100609.80
2023-02-19T12:14:50.200Z,100614.44
2023-02-19T12:18:53.595Z,100617.88
2023-02-19T12:22:31.318Z,100625.29
2023-02-19T12:26:05.683Z,100626.20
2023-02-19T12:29:49.830Z,100617.70
2023-02-19T12:33:43.394Z,100624.79
2023-02-19T12:37:23.130Z,100629.15
2023-02-19T12:40:59.966Z,100638.17
2023-02-19T12:44:36.310Z,100646.63
2023-02-19T12:48:10.635Z,100646.40
2023-02-19T12:51:42.715Z,100649.77
2023-02-19T12:55:23.216Z,100652.73
2023-02-19T12:58:54.958Z,100660.31
2023-02-19T13:02:27.606Z,100666.68
2023-02-19T13:05:59.493Z,100672.14
2023-02-19T13:09:32.870Z,100674.19
2023-02-19T13:13:05.968Z,100683.54
2023-02-19T13:16:36.030Z,100682.28
2023-02-19T13:20:09.738Z,100672.52
2023-02-19T13:23:59.978Z,100682.11
2023-02-19T13:27:55.414Z,100677.42
2023-02-19T13:31:49.568Z,100672.98
2023-02-19T13:35:29.158Z,100668.73
2023-02-19T13:38:58.306Z,100673.54
2023-02-19T13:42:29.979Z,100676.81
2023-02-19T13:46:00.469Z,100670.99
2023-02-19T13:49:44.542Z,100673.89
2023-02-19T13:53:42.624Z,100680.46
2023-02-19T13:57:32.863Z,100680.44
2023-02-19T14:01:01.480Z,100687.37
2023-02-19T14:04:44.726Z,100705.66
2023-02-19T14:08:12.309Z,100714.59
2023-02-19T14:12:19.121Z,100716.89
2023-02-19T14:15:51.282Z,100725.38
2023-02-19T14:19:39.280Z,100723.59
2023-02-19T14:23:17.411Z,100730.33
2023-02-19T14:26:44.826Z,100733.52
2023-02-19T14:30:15.014Z,100736.19
2023-02-19T14:33:47.814Z,100738.59
2023-02-19T14:37:20.666Z,100746.41
2023-02-19T14:40:50.225Z,100742.45
2023-02-19T14:44:23.388Z,100745.01
2023-02-19T14:47:53.382Z,100751.04
2023-02-19T14:51:30.597Z,100756.87
2023-02-19T14:55:01.909Z,100751.96
2023-02-19T14:58:32.740Z,100752.09
2023-02-19T15:02:02.227Z,100766.06
2023-02-19T15:05:32.369Z,100770.28
2023-02-19T15:09:03.405Z,100780.75
2023-02-19T15:12:34.410Z,100787.65
2023-02-19T15:16:01.882Z,100794.41
2023-02-19T15:19:30.522Z,100805.83
2023-02-19T15:23:00.620Z,100808.66
2023-02-19T15:26:29.608Z,100815.25
2023-02-19T15:29:57.077Z,100819.38
2023-02-19T15:33:24.672Z,100825.32
2023-02-19T15:36:56.700Z,100828.33
2023-02-19T15:40:28.577Z,100831.23
2023-02-19T15:44:01.380Z,100838.97
2023-02-19T15:47:35.592Z,100836.23
2023-02-19T15:51:09.406Z,100833.65
2023-02-19T15:54:45.068Z,100838.19
2023-02-19T15:58:19.768Z,100839.98
2023-02-19T16:01:47.260Z,100842.68
2023-02-19T16:05:25.193Z,100851.56
2023-02-19T16:09:05.741Z,100862.66
2023-02-19T16:12:32.859Z,100881.05
2023-02-19T16:16:03.647Z,100882.18
2023-02-19T16:19:35.440Z,100886.58
2023-02-19T16:23:06.834Z,100885.62
2023-02-19T16:26:42.441Z,100889.16
2023-02-19T16:30:25.763Z,100896.68
2023-02-19T16:33:53.608Z,100896.38
2023-02-19T16:37:40.850Z,100902.30
2023-02-19T16:41:16.567Z,100911.75
2023-02-19T16:44:44.799Z,100926.67
2023-02-19T16:48:12.745Z,100932.50
2023-02-19T16:51:40.111Z,100950.59
2023-02-19T16:55:14.985Z,100963.54
2023-02-19T16:58:42.279Z,100966.85
2023-02-19T17:02:16.426Z,100972.06
2023-02-19T17:05:45.212Z,100970.46
2023-02-19T17:09:12.458Z,100968.89
2023-02-19T17:12:39.590Z,100984.52
2023-02-19T17:16:07.481Z,100991.04
2023-02-19T17:19:39.353Z,100985.63
2023-02-19T17:23:06.505Z,100985.77
2023-02-19T17:26:34.732Z,100993.64
2023-02-19T17:30:01.920Z,100995.27
2023-02-19T17:33:29.327Z,100998.21
2023-02-19T17:36:56.520Z,101000.85
2023-02-19T17:40:32.665Z,101009.19
2023-02-19T17:44:00.712Z,101016.14
2023-02-19T17:47:27.859Z,101018.24
2023-02-19T17:50:55.227Z,101025.88
2023-02-19T17:54:22.496Z,101034.02
2023-02-19T17:57:50.989Z,101035.59
2023-02-19T18:01:18.806Z,101041.45
2023-02-19T18:04:46.124Z,101052.73
2023-02-19T18:08:16.501Z,101057.91
2023-02-19T18:11:47.357Z,101060.59
2023-02-19T18:15:20.192Z,101066.55
2023-02-19T18:18:47.778Z,101068.36
2023-02-19T18:22:14.881Z,101068.53
2023-02-19T18:25:42.114Z,101076.60
2023-02-19T18:29:09.401Z,101081.86
2023-02-19T18:32:36.962Z,101089.60
2023-02-19T18:36:05.214Z,101093.07
2023-02-19T18:39:32.348Z,101091.81
2023-02-19T18:42:59.834Z,101094.05
2023-02-19T18:46:27.072Z,101088.71
2023-02-19T18:49:56.155Z,101085.65
2023-02-19T18:53:23.377Z,101087.36
2023-02-19T18:56:51.339Z,101088.30
2023-02-19T19:00:22.827Z,101092.53
2023-02-19T19:03:50.141Z,101095.62
2023-02-19T19:07:17.983Z,101093.52
2023-02-19T19:10:45.373Z,101092.61
2023-02-19T19:14:12.737Z,101099.13
2023-02-19T19:17:40.423Z,101099.60
2023-02-19T19:21:09.668Z,101100.07
2023-02-19T19:24:35.456Z,101097.86
2023-02-19T19:28:02.540Z,101099.73
2023-02-19T19:31:37.072Z,101104.59
2023-02-19T19:35:04.618Z,101107.41
2023-02-19T19:38:31.865Z,101109.00
2023-02-19T19:41:59.369Z,101105.88
2023-02-19T19:45:26.796Z,101105.25
2023-02-19T19:48:54.538Z,101107.73
2023-02-19T19:52:22.250Z,101110.77
2023-02-19T19:55:51.838Z,101110.48
2023-02-19T19:59:20.119Z,101111.23
2023-02-19T20:02:47.405Z,101116.27
2023-02-19T20:06:14.878Z,101116.69
2023-02-19T20:09:42.123Z,101114.17
2023-02-19T20:13:09.335Z,101112.46
2023-02-19T20:16:36.520Z,101110.87
2023-02-19T20:20:03.972Z,101114.23
2023-02-19T20:23:31.510Z,101111.54
2023-02-19T20:27:01.013Z,101118.40
2023-02-19T20:30:30.291Z,101119.56
2023-02-19T20:33:57.522Z,101123.77
2023-02-19T20:37:24.801Z,101125.45
2023-02-19T20:40:51.998Z,101131.77
2023-02-19T20:44:20.045Z,101135.30
2023-02-19T20:47:48.016Z,101136.55
2023-02-19T20:51:18.120Z,101140.65
2023-02-19T20:54:45.479Z,101144.04
2023-02-19T20:58:13.258Z,101150.52
2023-02-19T21:01:41.596Z,101157.11
2023-02-19T21:05:11.571Z,101160.20
2023-02-19T21:08:39.125Z,101160.90
2023-02-19T21:12:07.127Z,101155.12
2023-02-19T21:15:34.884Z,101157.52
2023-02-19T21:19:03.358Z,101160.52
2023-02-19T21:22:30.692Z,101170.81
2023-02-19T21:25:58.051Z,101176.92
2023-02-19T21:29:25.547Z,101178.61
2023-02-19T21:32:52.812Z,101179.46
2023-02-19T21:36:21.307Z,101183.88
2023-02-19T21:39:49.162Z,101180.81
2023-02-19T21:43:16.738Z,101179.16
2023-02-19T21:46:44.511Z,101178.14
2023-02-19T21:50:13.185Z,101179.73
2023-02-19T21:53:40.620Z,101180.06
2023-02-19T21:57:09.414Z,101177.89
2023-02-19T22:00:36.740Z,101180.27
2023-02-19T22:04:03.933Z,101177.69
2023-02-19T22:07:31.747Z,101174.80
2023-02-19T22:11:00.192Z,101168.69
2023-02-19T22:14:28.651Z,101167.16
2023-02-19T22:18:00.280Z,101163.55
2023-02-19T22:21:32.293Z,101162.04
2023-02-19T22:25:03.606Z,101164.43
2023-02-19T22:28:30.938Z,101172.02
2023-02-19T22:31:58.601Z,101176.67
2023-02-19T22:35:28.014Z,101168.91
2023-02-19T22:38:57.602Z,101172.01
2023-02-19T22:42:25.538Z,101168.83
2023-02-19T22:45:55.639Z,101157.97
2023-02-19T22:49:24.395Z,101163.12
2023-02-19T22:52:54.841Z,101162.97
2023-02-19T22:56:28.604Z,101165.79
2023-02-19T23:00:22.386Z,101167.25
2023-02-19T23:03:52.141Z,101168.05
2023-02-19T23:07:19.641Z,101164.63
2023-02-19T23:10:50.643Z,101156.41
2023-02-19T23:14:19.868Z,101159.16
2023-02-19T23:17:47.124Z,101157.70
2023-02-19T23:21:14.782Z,101158.09
2023-02-19T23:24:42.406Z,101152.77
2023-02-19T23:28:12.484Z,101155.48
2023-02-19T23:31:39.959Z,101156.85
2023-02-19T23:35:10.932Z,101161.16
2023-02-19T23:38:40.781Z,101154.33
2023-02-19T23:42:08.491Z,101144.61
2023-02-19T23:45:45.064Z,101132.16
2023-02-19T23:49:12.393Z,101129.84
2023-02-19T23:52:39.582Z,101121.09
2023-02-19T23:56:10.831Z,101117.63
2023-02-19T23:59:58.007Z,101114.83
